Terminal Aerodrome Forecast
Issued by NWS La Crosse, WI

Home | Current Version | Previous Version | Text Only | Print | Product List | Glossary On
Versions: 1 2 3 4 5 6 7 8 9 10 11 12 13 14 15 16 17 18 19
000
FTUS43 KARX 011131
TAFLSE
TAF
KLSE 011131Z 0112/0212 01006KT P6SM OVC050
     FM011500 03010G15KT P6SM OVC050
     FM020000 03004KT P6SM BKN050
     FM020900 04003KT P6SM SCT050=

USA.gov is the U.S. government's official web portal to all federal, state and local government web resources and services.